Terminal Aerodrome Forecast
Issued by NWS

Home | Current Version | Previous Version | Text Only | Print | Product List | Glossary On
Versions: 1 2 3 4 5 6 7 8 9 10 11 12 13 14 15 16 17 18 19 20 21
000
FTUS46 KSGX 020247 AAB
TAFCRQ
TAF AMD
KCRQ 020247Z 0203/0224 VRB05KT P6SM SCT008 BKN150
      TEMPO 0203/0206 BKN007
     FM020800 VRB05KT 5SM BR BKN007
      TEMPO 0212/0214 4SM BR BKN005
     FM021500 VRB05KT P6SM SCT007
     FM021900 25009KT P6SM SCT200=

USA.gov is the U.S. government's official web portal to all federal, state and local government web resources and services.